sensor_id;sensor_type;location;lat;lon;timestamp;P1;durP1;ratioP1;P2;durP2;ratioP2
7171;SDS011;3627;46.544;14.944;2024-03-23T00:53:43;1.35;;;1.35;;
7171;SDS011;3627;46.544;14.944;2024-03-23T00:56:10;1.30;;;1.30;;
7171;SDS011;3627;46.544;14.944;2024-03-23T00:58:35;1.40;;;1.40;;
7171;SDS011;3627;46.544;14.944;2024-03-23T01:01:02;1.50;;;1.50;;
7171;SDS011;3627;46.544;14.944;2024-03-23T01:03:28;1.42;;;1.42;;
7171;SDS011;3627;46.544;14.944;2024-03-23T01:05:57;1.38;;;1.38;;
7171;SDS011;3627;46.544;14.944;2024-03-23T01:08:23;1.45;;;1.45;;
7171;SDS011;3627;46.544;14.944;2024-03-23T01:10:55;1.27;;;1.27;;
7171;SDS011;3627;46.544;14.944;2024-03-23T01:13:20;1.40;;;1.40;;
7171;SDS011;3627;46.544;14.944;2024-03-23T01:15:48;1.20;;;1.20;;
7171;SDS011;3627;46.544;14.944;2024-03-23T01:18:13;1.35;;;1.35;;
7171;SDS011;3627;46.544;14.944;2024-03-23T01:20:39;1.30;;;1.30;;
7171;SDS011;3627;46.544;14.944;2024-03-23T01:23:05;1.25;;;1.25;;
7171;SDS011;3627;46.544;14.944;2024-03-23T01:25:31;1.40;;;1.40;;
7171;SDS011;3627;46.544;14.944;2024-03-23T01:27:58;1.48;;;1.48;;
7171;SDS011;3627;46.544;14.944;2024-03-23T01:30:24;1.40;;;1.40;;
7171;SDS011;3627;46.544;14.944;2024-03-23T01:32:49;1.30;;;1.30;;
7171;SDS011;3627;46.544;14.944;2024-03-23T01:35:16;1.38;;;1.38;;
7171;SDS011;3627;46.544;14.944;2024-03-23T01:37:41;1.30;;;1.30;;
7171;SDS011;3627;46.544;14.944;2024-03-23T01:40:08;1.30;;;1.30;;
7171;SDS011;3627;46.544;14.944;2024-03-23T01:42:33;1.30;;;1.30;;
7171;SDS011;3627;46.544;14.944;2024-03-23T01:45:01;1.30;;;1.30;;
7171;SDS011;3627;46.544;14.944;2024-03-23T01:47:26;1.30;;;1.30;;
7171;SDS011;3627;46.544;14.944;2024-03-23T01:49:53;1.40;;;1.40;;
7171;SDS011;3627;46.544;14.944;2024-03-23T01:52:18;1.40;;;1.40;;
7171;SDS011;3627;46.544;14.944;2024-03-23T01:54:45;1.50;;;1.50;;
7171;SDS011;3627;46.544;14.944;2024-03-23T01:57:10;1.40;;;1.40;;
7171;SDS011;3627;46.544;14.944;2024-03-23T01:59:39;1.45;;;1.45;;
7171;SDS011;3627;46.544;14.944;2024-03-23T02:02:05;1.27;;;1.27;;
7171;SDS011;3627;46.544;14.944;2024-03-23T02:04:32;1.52;;;1.52;;
7171;SDS011;3627;46.544;14.944;2024-03-23T02:06:57;1.27;;;1.27;;
7171;SDS011;3627;46.544;14.944;2024-03-23T02:09:24;1.20;;;1.20;;
7171;SDS011;3627;46.544;14.944;2024-03-23T02:11:50;1.30;;;1.30;;
7171;SDS011;3627;46.544;14.944;2024-03-23T02:14:16;1.50;;;1.50;;
7171;SDS011;3627;46.544;14.944;2024-03-23T02:16:42;1.48;;;1.48;;
7171;SDS011;3627;46.544;14.944;2024-03-23T02:19:10;1.52;;;1.52;;
7171;SDS011;3627;46.544;14.944;2024-03-23T02:21:35;1.48;;;1.48;;
7171;SDS011;3627;46.544;14.944;2024-03-23T02:24:03;1.40;;;1.40;;
7171;SDS011;3627;46.544;14.944;2024-03-23T02:26:28;1.42;;;1.42;;
7171;SDS011;3627;46.544;14.944;2024-03-23T02:28:55;1.30;;;1.30;;
7171;SDS011;3627;46.544;14.944;2024-03-23T02:31:20;1.33;;;1.33;;
7171;SDS011;3627;46.544;14.944;2024-03-23T02:33:47;1.33;;;1.33;;
7171;SDS011;3627;46.544;14.944;2024-03-23T02:36:12;1.42;;;1.42;;
7171;SDS011;3627;46.544;14.944;2024-03-23T02:38:38;1.30;;;1.30;;
7171;SDS011;3627;46.544;14.944;2024-03-23T02:41:05;1.38;;;1.38;;
7171;SDS011;3627;46.544;14.944;2024-03-23T02:43:32;1.20;;;1.20;;
7171;SDS011;3627;46.544;14.944;2024-03-23T02:45:57;1.40;;;1.40;;
7171;SDS011;3627;46.544;14.944;2024-03-23T02:48:23;1.50;;;1.50;;
7171;SDS011;3627;46.544;14.944;2024-03-23T02:50:49;1.20;;;1.20;;
7171;SDS011;3627;46.544;14.944;2024-03-23T02:53:15;1.35;;;1.35;;
7171;SDS011;3627;46.544;14.944;2024-03-23T02:55:41;1.40;;;1.40;;
7171;SDS011;3627;46.544;14.944;2024-03-23T02:58:08;1.38;;;1.38;;
7171;SDS011;3627;46.544;14.944;2024-03-23T03:00:34;1.50;;;1.50;;
7171;SDS011;3627;46.544;14.944;2024-03-23T03:03:00;1.50;;;1.50;;
7171;SDS011;3627;46.544;14.944;2024-03-23T03:05:25;1.30;;;1.30;;
7171;SDS011;3627;46.544;14.944;2024-03-23T03:07:52;1.50;;;1.50;;
7171;SDS011;3627;46.544;14.944;2024-03-23T03:10:17;1.30;;;1.30;;
7171;SDS011;3627;46.544;14.944;2024-03-23T03:12:43;1.50;;;1.50;;
7171;SDS011;3627;46.544;14.944;2024-03-23T03:15:10;1.40;;;1.40;;
7171;SDS011;3627;46.544;14.944;2024-03-23T03:17:37;1.48;;;1.48;;
7171;SDS011;3627;46.544;14.944;2024-03-23T03:20:02;1.50;;;1.50;;
7171;SDS011;3627;46.544;14.944;2024-03-23T03:22:29;1.42;;;1.42;;
7171;SDS011;3627;46.544;14.944;2024-03-23T03:24:55;1.40;;;1.40;;
7171;SDS011;3627;46.544;14.944;2024-03-23T03:27:21;1.52;;;1.52;;
7171;SDS011;3627;46.544;14.944;2024-03-23T03:29:48;1.40;;;1.40;;
7171;SDS011;3627;46.544;14.944;2024-03-23T03:32:16;1.30;;;1.30;;
7171;SDS011;3627;46.544;14.944;2024-03-23T03:34:41;1.50;;;1.50;;
7171;SDS011;3627;46.544;14.944;2024-03-23T03:37:07;1.40;;;1.40;;
7171;SDS011;3627;46.544;14.944;2024-03-23T03:39:33;1.30;;;1.30;;
7171;SDS011;3627;46.544;14.944;2024-03-23T03:41:59;1.48;;;1.48;;
7171;SDS011;3627;46.544;14.944;2024-03-23T03:44:26;1.40;;;1.40;;
7171;SDS011;3627;46.544;14.944;2024-03-23T03:46:53;1.40;;;1.40;;
7171;SDS011;3627;46.544;14.944;2024-03-23T03:49:19;1.30;;;1.30;;
7171;SDS011;3627;46.544;14.944;2024-03-23T03:51:46;1.40;;;1.40;;
7171;SDS011;3627;46.544;14.944;2024-03-23T03:54:11;1.40;;;1.40;;
7171;SDS011;3627;46.544;14.944;2024-03-23T03:56:38;1.30;;;1.30;;
7171;SDS011;3627;46.544;14.944;2024-03-23T03:59:03;1.50;;;1.50;;
7171;SDS011;3627;46.544;14.944;2024-03-23T04:01:29;1.40;;;1.40;;
7171;SDS011;3627;46.544;14.944;2024-03-23T04:03:55;1.60;;;1.60;;
7171;SDS011;3627;46.544;14.944;2024-03-23T04:06:22;1.52;;;1.52;;
7171;SDS011;3627;46.544;14.944;2024-03-23T04:08:48;1.50;;;1.50;;
7171;SDS011;3627;46.544;14.944;2024-03-23T04:11:15;1.50;;;1.50;;
7171;SDS011;3627;46.544;14.944;2024-03-23T04:13:40;1.42;;;1.42;;
7171;SDS011;3627;46.544;14.944;2024-03-23T04:16:07;1.40;;;1.40;;
7171;SDS011;3627;46.544;14.944;2024-03-23T04:18:32;1.50;;;1.50;;
7171;SDS011;3627;46.544;14.944;2024-03-23T04:20:58;1.40;;;1.40;;
7171;SDS011;3627;46.544;14.944;2024-03-23T04:23:25;1.40;;;1.40;;
7171;SDS011;3627;46.544;14.944;2024-03-23T04:25:51;1.40;;;1.40;;
7171;SDS011;3627;46.544;14.944;2024-03-23T04:28:18;1.40;;;1.40;;
7171;SDS011;3627;46.544;14.944;2024-03-23T04:30:44;1.40;;;1.40;;
7171;SDS011;3627;46.544;14.944;2024-03-23T04:33:10;1.52;;;1.52;;
7171;SDS011;3627;46.544;14.944;2024-03-23T04:35:36;1.48;;;1.48;;
7171;SDS011;3627;46.544;14.944;2024-03-23T04:38:01;1.50;;;1.50;;
7171;SDS011;3627;46.544;14.944;2024-03-23T04:40:29;1.60;;;1.60;;
7171;SDS011;3627;46.544;14.944;2024-03-23T04:42:56;1.50;;;1.50;;
7171;SDS011;3627;46.544;14.944;2024-03-23T04:45:22;1.50;;;1.50;;
7171;SDS011;3627;46.544;14.944;2024-03-23T04:47:49;1.40;;;1.40;;
7171;SDS011;3627;46.544;14.944;2024-03-23T04:50:15;1.40;;;1.40;;
7171;SDS011;3627;46.544;14.944;2024-03-23T04:52:42;1.30;;;1.30;;
7171;SDS011;3627;46.544;14.944;2024-03-23T04:55:08;1.40;;;1.40;;
7171;SDS011;3627;46.544;14.944;2024-03-23T04:57:36;1.40;;;1.40;;
7171;SDS011;3627;46.544;14.944;2024-03-23T05:00:01;1.42;;;1.42;;
7171;SDS011;3627;46.544;14.944;2024-03-23T05:02:28;1.50;;;1.50;;
7171;SDS011;3627;46.544;14.944;2024-03-23T05:04:54;1.60;;;1.60;;
7171;SDS011;3627;46.544;14.944;2024-03-23T05:07:20;1.50;;;1.50;;
7171;SDS011;3627;46.544;14.944;2024-03-23T05:09:45;1.40;;;1.40;;
7171;SDS011;3627;46.544;14.944;2024-03-23T05:12:13;1.42;;;1.42;;
7171;SDS011;3627;46.544;14.944;2024-03-23T05:14:41;1.33;;;1.33;;
7171;SDS011;3627;46.544;14.944;2024-03-23T05:17:06;1.40;;;1.40;;
7171;SDS011;3627;46.544;14.944;2024-03-23T05:19:33;1.40;;;1.40;;
7171;SDS011;3627;46.544;14.944;2024-03-23T05:21:58;1.38;;;1.38;;
7171;SDS011;3627;46.544;14.944;2024-03-23T05:24:25;1.42;;;1.42;;
7171;SDS011;3627;46.544;14.944;2024-03-23T05:26:51;1.40;;;1.40;;
7171;SDS011;3627;46.544;14.944;2024-03-23T05:29:17;1.50;;;1.50;;
7171;SDS011;3627;46.544;14.944;2024-03-23T05:31:44;1.48;;;1.48;;
7171;SDS011;3627;46.544;14.944;2024-03-23T05:34:15;1.30;;;1.30;;
7171;SDS011;3627;46.544;14.944;2024-03-23T05:36:41;1.45;;;1.45;;
7171;SDS011;3627;46.544;14.944;2024-03-23T05:39:07;1.50;;;1.50;;
7171;SDS011;3627;46.544;14.944;2024-03-23T05:41:32;1.50;;;1.50;;
7171;SDS011;3627;46.544;14.944;2024-03-23T05:44:01;1.52;;;1.52;;
7171;SDS011;3627;46.544;14.944;2024-03-23T05:46:26;1.40;;;1.40;;
7171;SDS011;3627;46.544;14.944;2024-03-23T05:48:54;1.30;;;1.30;;
7171;SDS011;3627;46.544;14.944;2024-03-23T05:51:26;1.23;;;1.23;;
7171;SDS011;3627;46.544;14.944;2024-03-23T05:53:52;1.30;;;1.30;;
7171;SDS011;3627;46.544;14.944;2024-03-23T05:56:19;1.20;;;1.20;;
7171;SDS011;3627;46.544;14.944;2024-03-23T05:58:45;1.15;;;1.15;;
7171;SDS011;3627;46.544;14.944;2024-03-23T06:01:11;1.10;;;1.10;;
7171;SDS011;3627;46.544;14.944;2024-03-23T06:03:38;1.20;;;1.20;;
7171;SDS011;3627;46.544;14.944;2024-03-23T06:06:04;0.90;;;0.90;;
7171;SDS011;3627;46.544;14.944;2024-03-23T06:08:35;1.10;;;1.10;;
7171;SDS011;3627;46.544;14.944;2024-03-23T06:11:00;1.00;;;1.00;;
7171;SDS011;3627;46.544;14.944;2024-03-23T06:13:27;1.00;;;1.00;;
7171;SDS011;3627;46.544;14.944;2024-03-23T06:15:55;0.85;;;0.85;;
7171;SDS011;3627;46.544;14.944;2024-03-23T06:18:21;0.80;;;0.80;;
7171;SDS011;3627;46.544;14.944;2024-03-23T06:20:46;0.80;;;0.80;;
7171;SDS011;3627;46.544;14.944;2024-03-23T06:23:14;0.65;;;0.65;;
7171;SDS011;3627;46.544;14.944;2024-03-23T06:25:40;0.80;;;0.80;;
7171;SDS011;3627;46.544;14.944;2024-03-23T06:28:07;0.70;;;0.70;;
7171;SDS011;3627;46.544;14.944;2024-03-23T06:30:32;0.80;;;0.80;;
7171;SDS011;3627;46.544;14.944;2024-03-23T06:32:58;0.60;;;0.60;;
7171;SDS011;3627;46.544;14.944;2024-03-23T06:35:24;0.50;;;0.50;;
7171;SDS011;3627;46.544;14.944;2024-03-23T06:37:50;0.60;;;0.60;;
7171;SDS011;3627;46.544;14.944;2024-03-23T06:40:17;0.45;;;0.45;;
7171;SDS011;3627;46.544;14.944;2024-03-23T06:42:43;0.50;;;0.50;;
7171;SDS011;3627;46.544;14.944;2024-03-23T06:45:09;0.40;;;0.40;;
7171;SDS011;3627;46.544;14.944;2024-03-23T06:47:35;0.30;;;0.30;;
7171;SDS011;3627;46.544;14.944;2024-03-23T06:50:02;0.40;;;0.40;;
7171;SDS011;3627;46.544;14.944;2024-03-23T06:52:28;0.22;;;0.22;;
7171;SDS011;3627;46.544;14.944;2024-03-23T06:54:54;0.30;;;0.30;;
7171;SDS011;3627;46.544;14.944;2024-03-23T06:57:21;0.35;;;0.35;;
7171;SDS011;3627;46.544;14.944;2024-03-23T06:59:47;0.28;;;0.28;;
7171;SDS011;3627;46.544;14.944;2024-03-23T07:02:13;0.40;;;0.40;;
7171;SDS011;3627;46.544;14.944;2024-03-23T07:04:39;0.50;;;0.50;;
7171;SDS011;3627;46.544;14.944;2024-03-23T07:07:05;0.50;;;0.50;;
7171;SDS011;3627;46.544;14.944;2024-03-23T07:09:31;0.50;;;0.50;;
7171;SDS011;3627;46.544;14.944;2024-03-23T07:11:57;0.70;;;0.70;;
7171;SDS011;3627;46.544;14.944;2024-03-23T07:14:24;0.65;;;0.65;;
7171;SDS011;3627;46.544;14.944;2024-03-23T07:16:50;0.70;;;0.70;;
7171;SDS011;3627;46.544;14.944;2024-03-23T07:19:17;0.70;;;0.70;;
7171;SDS011;3627;46.544;14.944;2024-03-23T07:21:42;0.82;;;0.82;;
7171;SDS011;3627;46.544;14.944;2024-03-23T07:24:09;0.70;;;0.70;;
7171;SDS011;3627;46.544;14.944;2024-03-23T07:26:34;0.90;;;0.90;;
7171;SDS011;3627;46.544;14.944;2024-03-23T07:29:01;0.80;;;0.80;;
7171;SDS011;3627;46.544;14.944;2024-03-23T07:31:28;0.80;;;0.80;;
7171;SDS011;3627;46.544;14.944;2024-03-23T07:33:54;0.90;;;0.90;;
7171;SDS011;3627;46.544;14.944;2024-03-23T07:36:20;0.90;;;0.90;;
7171;SDS011;3627;46.544;14.944;2024-03-23T07:38:46;0.80;;;0.80;;
7171;SDS011;3627;46.544;14.944;2024-03-23T07:41:13;0.80;;;0.80;;
7171;SDS011;3627;46.544;14.944;2024-03-23T07:43:42;0.80;;;0.80;;
7171;SDS011;3627;46.544;14.944;2024-03-23T07:46:08;0.90;;;0.90;;
7171;SDS011;3627;46.544;14.944;2024-03-23T07:48:36;0.70;;;0.70;;
7171;SDS011;3627;46.544;14.944;2024-03-23T07:51:01;0.80;;;0.80;;
7171;SDS011;3627;46.544;14.944;2024-03-23T07:53:28;0.70;;;0.70;;
7171;SDS011;3627;46.544;14.944;2024-03-23T07:55:54;0.90;;;0.90;;
7171;SDS011;3627;46.544;14.944;2024-03-23T07:58:20;0.90;;;0.90;;
7171;SDS011;3627;46.544;14.944;2024-03-23T08:00:46;0.70;;;0.70;;
7171;SDS011;3627;46.544;14.944;2024-03-23T08:03:12;0.80;;;0.80;;
7171;SDS011;3627;46.544;14.944;2024-03-23T08:05:39;0.80;;;0.80;;
7171;SDS011;3627;46.544;14.944;2024-03-23T08:08:06;0.75;;;0.75;;
7171;SDS011;3627;46.544;14.944;2024-03-23T08:10:31;0.90;;;0.90;;
7171;SDS011;3627;46.544;14.944;2024-03-23T08:12:57;0.80;;;0.80;;
7171;SDS011;3627;46.544;14.944;2024-03-23T08:15:23;0.93;;;0.93;;
7171;SDS011;3627;46.544;14.944;2024-03-23T08:17:49;0.90;;;0.90;;
7171;SDS011;3627;46.544;14.944;2024-03-23T08:20:15;0.80;;;0.80;;
7171;SDS011;3627;46.544;14.944;2024-03-23T08:22:42;0.80;;;0.80;;
7171;SDS011;3627;46.544;14.944;2024-03-23T08:25:08;1.10;;;1.10;;
7171;SDS011;3627;46.544;14.944;2024-03-23T08:27:34;0.90;;;0.90;;
7171;SDS011;3627;46.544;14.944;2024-03-23T08:30:00;0.98;;;0.98;;
7171;SDS011;3627;46.544;14.944;2024-03-23T08:32:26;0.90;;;0.90;;
7171;SDS011;3627;46.544;14.944;2024-03-23T08:34:51;0.98;;;0.98;;
7171;SDS011;3627;46.544;14.944;2024-03-23T08:37:18;0.80;;;0.80;;
7171;SDS011;3627;46.544;14.944;2024-03-23T08:39:44;1.00;;;1.00;;
7171;SDS011;3627;46.544;14.944;2024-03-23T08:42:11;0.75;;;0.75;;
7171;SDS011;3627;46.544;14.944;2024-03-23T08:44:36;0.90;;;0.90;;
7171;SDS011;3627;46.544;14.944;2024-03-23T08:47:03;0.90;;;0.90;;
7171;SDS011;3627;46.544;14.944;2024-03-23T08:49:28;0.90;;;0.90;;
7171;SDS011;3627;46.544;14.944;2024-03-23T08:51:55;0.90;;;0.90;;
7171;SDS011;3627;46.544;14.944;2024-03-23T08:54:20;0.93;;;0.93;;
7171;SDS011;3627;46.544;14.944;2024-03-23T08:56:49;1.00;;;1.00;;
7171;SDS011;3627;46.544;14.944;2024-03-23T08:59:14;0.90;;;0.90;;
7171;SDS011;3627;46.544;14.944;2024-03-23T09:01:41;1.20;;;1.20;;
7171;SDS011;3627;46.544;14.944;2024-03-23T09:04:06;0.90;;;0.90;;
7171;SDS011;3627;46.544;14.944;2024-03-23T09:06:33;0.90;;;0.90;;
7171;SDS011;3627;46.544;14.944;2024-03-23T09:08:58;0.82;;;0.82;;
7171;SDS011;3627;46.544;14.944;2024-03-23T09:11:24;0.90;;;0.90;;
7171;SDS011;3627;46.544;14.944;2024-03-23T09:13:51;0.70;;;0.70;;
7171;SDS011;3627;46.544;14.944;2024-03-23T09:16:17;0.60;;;0.60;;
7171;SDS011;3627;46.544;14.944;2024-03-23T09:18:43;0.70;;;0.70;;
7171;SDS011;3627;46.544;14.944;2024-03-23T09:21:10;0.52;;;0.52;;
7171;SDS011;3627;46.544;14.944;2024-03-23T09:23:36;0.50;;;0.50;;
7171;SDS011;3627;46.544;14.944;2024-03-23T09:26:03;0.28;;;0.28;;
7171;SDS011;3627;46.544;14.944;2024-03-23T09:28:28;0.40;;;0.40;;
7171;SDS011;3627;46.544;14.944;2024-03-23T09:31:01;0.30;;;0.30;;
7171;SDS011;3627;46.544;14.944;2024-03-23T09:33:27;0.30;;;0.30;;
7171;SDS011;3627;46.544;14.944;2024-03-23T09:35:54;0.40;;;0.40;;
7171;SDS011;3627;46.544;14.944;2024-03-23T09:38:20;0.40;;;0.40;;
7171;SDS011;3627;46.544;14.944;2024-03-23T09:40:46;0.30;;;0.30;;
7171;SDS011;3627;46.544;14.944;2024-03-23T09:43:13;0.30;;;0.30;;
7171;SDS011;3627;46.544;14.944;2024-03-23T09:45:40;0.30;;;0.30;;
7171;SDS011;3627;46.544;14.944;2024-03-23T09:48:07;0.22;;;0.22;;
7171;SDS011;3627;46.544;14.944;2024-03-23T09:50:35;0.20;;;0.20;;
7171;SDS011;3627;46.544;14.944;2024-03-23T09:53:01;0.10;;;0.10;;
7171;SDS011;3627;46.544;14.944;2024-03-23T09:55:27;0.13;;;0.13;;
7171;SDS011;3627;46.544;14.944;2024-03-23T09:57:52;0.10;;;0.10;;
7171;SDS011;3627;46.544;14.944;2024-03-23T10:00:19;0.13;;;0.13;;
7171;SDS011;3627;46.544;14.944;2024-03-23T10:02:45;0.10;;;0.10;;
7171;SDS011;3627;46.544;14.944;2024-03-23T10:05:21;0.20;;;0.20;;
7171;SDS011;3627;46.544;14.944;2024-03-23T10:07:47;0.20;;;0.20;;
7171;SDS011;3627;46.544;14.944;2024-03-23T10:10:14;0.32;;;0.32;;
7171;SDS011;3627;46.544;14.944;2024-03-23T10:12:43;0.30;;;0.30;;
7171;SDS011;3627;46.544;14.944;2024-03-23T10:15:10;0.30;;;0.30;;
7171;SDS011;3627;46.544;14.944;2024-03-23T10:17:41;0.50;;;0.50;;
7171;SDS011;3627;46.544;14.944;2024-03-23T10:20:07;0.30;;;0.30;;
7171;SDS011;3627;46.544;14.944;2024-03-23T10:22:38;0.30;;;0.30;;
7171;SDS011;3627;46.544;14.944;2024-03-23T10:25:07;0.22;;;0.22;;
7171;SDS011;3627;46.544;14.944;2024-03-23T10:27:34;0.30;;;0.30;;
7171;SDS011;3627;46.544;14.944;2024-03-23T10:30:07;0.50;;;0.50;;
7171;SDS011;3627;46.544;14.944;2024-03-23T10:32:33;0.40;;;0.40;;
7171;SDS011;3627;46.544;14.944;2024-03-23T10:35:04;0.43;;;0.43;;
7171;SDS011;3627;46.544;14.944;2024-03-23T10:37:40;0.38;;;0.38;;
7171;SDS011;3627;46.544;14.944;2024-03-23T10:40:06;0.40;;;0.40;;
7171;SDS011;3627;46.544;14.944;2024-03-23T10:42:34;0.30;;;0.30;;
7171;SDS011;3627;46.544;14.944;2024-03-23T10:44:59;0.40;;;0.40;;
7171;SDS011;3627;46.544;14.944;2024-03-23T10:47:26;0.40;;;0.40;;
7171;SDS011;3627;46.544;14.944;2024-03-23T10:49:51;0.40;;;0.40;;
7171;SDS011;3627;46.544;14.944;2024-03-23T10:52:18;0.40;;;0.40;;
7171;SDS011;3627;46.544;14.944;2024-03-23T10:54:44;0.40;;;0.40;;
7171;SDS011;3627;46.544;14.944;2024-03-23T10:57:14;0.45;;;0.45;;
7171;SDS011;3627;46.544;14.944;2024-03-23T10:59:40;0.60;;;0.60;;
7171;SDS011;3627;46.544;14.944;2024-03-23T11:02:06;0.50;;;0.50;;
7171;SDS011;3627;46.544;14.944;2024-03-23T11:04:33;0.50;;;0.50;;
7171;SDS011;3627;46.544;14.944;2024-03-23T11:07:00;0.50;;;0.50;;
7171;SDS011;3627;46.544;14.944;2024-03-23T11:09:38;0.60;;;0.60;;
7171;SDS011;3627;46.544;14.944;2024-03-23T11:12:11;0.55;;;0.55;;
7171;SDS011;3627;46.544;14.944;2024-03-23T11:14:42;0.50;;;0.50;;
7171;SDS011;3627;46.544;14.944;2024-03-23T11:17:09;0.60;;;0.60;;
7171;SDS011;3627;46.544;14.944;2024-03-23T11:19:35;0.40;;;0.40;;
7171;SDS011;3627;46.544;14.944;2024-03-23T11:22:02;0.50;;;0.50;;
7171;SDS011;3627;46.544;14.944;2024-03-23T11:24:28;0.50;;;0.50;;
7171;SDS011;3627;46.544;14.944;2024-03-23T11:26:54;0.50;;;0.50;;
7171;SDS011;3627;46.544;14.944;2024-03-23T11:29:21;0.57;;;0.57;;
7171;SDS011;3627;46.544;14.944;2024-03-23T11:31:48;0.52;;;0.52;;
7171;SDS011;3627;46.544;14.944;2024-03-23T11:34:15;0.50;;;0.50;;
7171;SDS011;3627;46.544;14.944;2024-03-23T11:36:41;0.57;;;0.57;;
7171;SDS011;3627;46.544;14.944;2024-03-23T11:39:13;0.55;;;0.55;;
7171;SDS011;3627;46.544;14.944;2024-03-23T11:41:47;0.40;;;0.40;;
7171;SDS011;3627;46.544;14.944;2024-03-23T11:44:16;0.63;;;0.63;;
7171;SDS011;3627;46.544;14.944;2024-03-23T11:46:43;0.60;;;0.60;;
7171;SDS011;3627;46.544;14.944;2024-03-23T11:49:19;0.60;;;0.60;;
7171;SDS011;3627;46.544;14.944;2024-03-23T11:51:47;0.60;;;0.60;;
7171;SDS011;3627;46.544;14.944;2024-03-23T11:54:12;0.50;;;0.50;;
7171;SDS011;3627;46.544;14.944;2024-03-23T11:56:39;0.55;;;0.55;;
7171;SDS011;3627;46.544;14.944;2024-03-23T11:59:04;0.50;;;0.50;;
7171;SDS011;3627;46.544;14.944;2024-03-23T12:01:30;0.60;;;0.60;;
7171;SDS011;3627;46.544;14.944;2024-03-23T12:03:57;0.60;;;0.60;;
7171;SDS011;3627;46.544;14.944;2024-03-23T12:06:24;0.57;;;0.57;;
7171;SDS011;3627;46.544;14.944;2024-03-23T12:08:50;0.50;;;0.50;;
7171;SDS011;3627;46.544;14.944;2024-03-23T12:11:17;0.63;;;0.63;;
7171;SDS011;3627;46.544;14.944;2024-03-23T12:13:43;0.60;;;0.60;;
7171;SDS011;3627;46.544;14.944;2024-03-23T12:16:11;0.73;;;0.73;;
7171;SDS011;3627;46.544;14.944;2024-03-23T12:18:37;0.60;;;0.60;;
7171;SDS011;3627;46.544;14.944;2024-03-23T12:21:06;0.73;;;0.73;;
7171;SDS011;3627;46.544;14.944;2024-03-23T12:23:32;0.60;;;0.60;;
7171;SDS011;3627;46.544;14.944;2024-03-23T12:25:58;0.60;;;0.60;;
7171;SDS011;3627;46.544;14.944;2024-03-23T12:28:24;0.60;;;0.60;;
7171;SDS011;3627;46.544;14.944;2024-03-23T12:30:51;0.60;;;0.60;;
7171;SDS011;3627;46.544;14.944;2024-03-23T12:33:17;0.70;;;0.70;;
7171;SDS011;3627;46.544;14.944;2024-03-23T12:35:44;0.60;;;0.60;;
7171;SDS011;3627;46.544;14.944;2024-03-23T12:38:10;0.43;;;0.43;;
7171;SDS011;3627;46.544;14.944;2024-03-23T12:40:37;0.50;;;0.50;;
7171;SDS011;3627;46.544;14.944;2024-03-23T12:43:02;0.60;;;0.60;;
7171;SDS011;3627;46.544;14.944;2024-03-23T12:45:29;0.70;;;0.70;;
7171;SDS011;3627;46.544;14.944;2024-03-23T12:47:54;0.50;;;0.50;;
7171;SDS011;3627;46.544;14.944;2024-03-23T12:50:20;0.50;;;0.50;;
7171;SDS011;3627;46.544;14.944;2024-03-23T12:52:46;0.50;;;0.50;;
7171;SDS011;3627;46.544;14.944;2024-03-23T12:55:14;0.57;;;0.57;;
7171;SDS011;3627;46.544;14.944;2024-03-23T12:57:39;0.70;;;0.70;;
7171;SDS011;3627;46.544;14.944;2024-03-23T13:00:06;0.70;;;0.70;;
7171;SDS011;3627;46.544;14.944;2024-03-23T13:02:34;0.50;;;0.50;;
7171;SDS011;3627;46.544;14.944;2024-03-23T13:05:01;0.50;;;0.50;;
7171;SDS011;3627;46.544;14.944;2024-03-23T13:07:26;0.50;;;0.50;;
7171;SDS011;3627;46.544;14.944;2024-03-23T13:09:52;0.52;;;0.52;;
7171;SDS011;3627;46.544;14.944;2024-03-23T13:12:19;0.60;;;0.60;;
7171;SDS011;3627;46.544;14.944;2024-03-23T13:14:46;0.50;;;0.50;;
7171;SDS011;3627;46.544;14.944;2024-03-23T13:17:11;0.60;;;0.60;;
7171;SDS011;3627;46.544;14.944;2024-03-23T13:19:37;0.60;;;0.60;;
7171;SDS011;3627;46.544;14.944;2024-03-23T13:22:03;0.60;;;0.60;;
7171;SDS011;3627;46.544;14.944;2024-03-23T13:24:30;0.60;;;0.60;;
7171;SDS011;3627;46.544;14.944;2024-03-23T13:26:55;0.75;;;0.75;;
7171;SDS011;3627;46.544;14.944;2024-03-23T13:29:23;0.77;;;0.77;;
7171;SDS011;3627;46.544;14.944;2024-03-23T13:31:49;0.77;;;0.77;;
7171;SDS011;3627;46.544;14.944;2024-03-23T13:34:16;0.50;;;0.50;;
7171;SDS011;3627;46.544;14.944;2024-03-23T13:36:41;0.68;;;0.68;;
7171;SDS011;3627;46.544;14.944;2024-03-23T13:39:08;0.60;;;0.60;;
7171;SDS011;3627;46.544;14.944;2024-03-23T13:41:36;0.63;;;0.63;;
7171;SDS011;3627;46.544;14.944;2024-03-23T13:44:03;0.50;;;0.50;;
7171;SDS011;3627;46.544;14.944;2024-03-23T13:46:30;0.52;;;0.52;;
7171;SDS011;3627;46.544;14.944;2024-03-23T13:48:56;0.60;;;0.60;;
7171;SDS011;3627;46.544;14.944;2024-03-23T13:51:23;0.40;;;0.40;;
7171;SDS011;3627;46.544;14.944;2024-03-23T13:53:50;0.50;;;0.50;;
7171;SDS011;3627;46.544;14.944;2024-03-23T13:56:15;0.57;;;0.57;;
7171;SDS011;3627;46.544;14.944;2024-03-23T13:58:42;0.70;;;0.70;;
7171;SDS011;3627;46.544;14.944;2024-03-23T14:01:11;0.60;;;0.60;;
7171;SDS011;3627;46.544;14.944;2024-03-23T14:03:39;0.60;;;0.60;;
7171;SDS011;3627;46.544;14.944;2024-03-23T14:06:05;0.60;;;0.60;;
7171;SDS011;3627;46.544;14.944;2024-03-23T14:08:32;0.60;;;0.60;;
7171;SDS011;3627;46.544;14.944;2024-03-23T14:10:59;0.60;;;0.60;;
7171;SDS011;3627;46.544;14.944;2024-03-23T14:13:25;0.60;;;0.60;;
7171;SDS011;3627;46.544;14.944;2024-03-23T14:15:52;0.60;;;0.60;;
7171;SDS011;3627;46.544;14.944;2024-03-23T14:18:18;0.80;;;0.80;;
7171;SDS011;3627;46.544;14.944;2024-03-23T14:20:45;0.70;;;0.70;;
7171;SDS011;3627;46.544;14.944;2024-03-23T14:23:12;0.68;;;0.68;;
7171;SDS011;3627;46.544;14.944;2024-03-23T14:25:38;0.60;;;0.60;;
7171;SDS011;3627;46.544;14.944;2024-03-23T14:28:04;0.70;;;0.70;;
7171;SDS011;3627;46.544;14.944;2024-03-23T14:30:30;0.70;;;0.70;;
7171;SDS011;3627;46.544;14.944;2024-03-23T14:32:56;0.80;;;0.80;;
7171;SDS011;3627;46.544;14.944;2024-03-23T14:35:23;0.50;;;0.50;;
7171;SDS011;3627;46.544;14.944;2024-03-23T14:37:50;0.77;;;0.77;;
7171;SDS011;3627;46.544;14.944;2024-03-23T14:40:17;0.63;;;0.63;;
7171;SDS011;3627;46.544;14.944;2024-03-23T14:42:42;0.80;;;0.80;;
7171;SDS011;3627;46.544;14.944;2024-03-23T14:45:09;0.70;;;0.70;;
7171;SDS011;3627;46.544;14.944;2024-03-23T14:47:34;0.73;;;0.73;;
7171;SDS011;3627;46.544;14.944;2024-03-23T14:50:00;0.73;;;0.73;;
7171;SDS011;3627;46.544;14.944;2024-03-23T14:52:26;0.70;;;0.70;;
7171;SDS011;3627;46.544;14.944;2024-03-23T14:54:54;0.60;;;0.60;;
7171;SDS011;3627;46.544;14.944;2024-03-23T14:57:21;0.70;;;0.70;;
7171;SDS011;3627;46.544;14.944;2024-03-23T14:59:47;0.70;;;0.70;;
7171;SDS011;3627;46.544;14.944;2024-03-23T15:02:13;0.68;;;0.68;;
7171;SDS011;3627;46.544;14.944;2024-03-23T15:04:39;0.63;;;0.63;;
7171;SDS011;3627;46.544;14.944;2024-03-23T15:07:07;0.70;;;0.70;;
7171;SDS011;3627;46.544;14.944;2024-03-23T15:09:33;0.70;;;0.70;;
7171;SDS011;3627;46.544;14.944;2024-03-23T15:12:00;0.80;;;0.80;;
7171;SDS011;3627;46.544;14.944;2024-03-23T15:14:26;0.70;;;0.70;;
7171;SDS011;3627;46.544;14.944;2024-03-23T15:16:52;0.77;;;0.77;;
7171;SDS011;3627;46.544;14.944;2024-03-23T15:19:19;0.80;;;0.80;;
7171;SDS011;3627;46.544;14.944;2024-03-23T15:21:44;0.70;;;0.70;;
7171;SDS011;3627;46.544;14.944;2024-03-23T15:24:11;0.70;;;0.70;;
7171;SDS011;3627;46.544;14.944;2024-03-23T15:26:36;0.70;;;0.70;;
7171;SDS011;3627;46.544;14.944;2024-03-23T15:29:04;0.80;;;0.80;;
7171;SDS011;3627;46.544;14.944;2024-03-23T15:31:35;0.80;;;0.80;;
7171;SDS011;3627;46.544;14.944;2024-03-23T15:34:02;0.70;;;0.70;;
7171;SDS011;3627;46.544;14.944;2024-03-23T15:36:29;0.80;;;0.80;;
7171;SDS011;3627;46.544;14.944;2024-03-23T15:38:55;0.70;;;0.70;;
7171;SDS011;3627;46.544;14.944;2024-03-23T15:41:21;0.70;;;0.70;;
7171;SDS011;3627;46.544;14.944;2024-03-23T15:43:48;0.70;;;0.70;;
7171;SDS011;3627;46.544;14.944;2024-03-23T15:46:15;0.70;;;0.70;;
7171;SDS011;3627;46.544;14.944;2024-03-23T15:48:44;0.80;;;0.80;;